sensor_id;sensor_type;location;lat;lon;timestamp;temperature;humidity
66835;HTU21D;53743;51.100;5.874;2024-03-29T00:00:54;10.93;54.65
66835;HTU21D;53743;51.100;5.874;2024-03-29T00:01:55;10.86;54.67
66835;HTU21D;53743;51.100;5.874;2024-03-29T00:02:56;10.95;54.57
66835;HTU21D;53743;51.100;5.874;2024-03-29T00:03:57;10.94;54.70
66835;HTU21D;53743;51.100;5.874;2024-03-29T00:04:58;10.90;54.48
66835;HTU21D;53743;51.100;5.874;2024-03-29T00:06:00;10.95;54.39
66835;HTU21D;53743;51.100;5.874;2024-03-29T00:07:01;10.94;54.17
66835;HTU21D;53743;51.100;5.874;2024-03-29T00:08:03;10.99;54.22
66835;HTU21D;53743;51.100;5.874;2024-03-29T00:09:04;10.93;54.34
66835;HTU21D;53743;51.100;5.874;2024-03-29T00:10:06;10.93;54.43
66835;HTU21D;53743;51.100;5.874;2024-03-29T00:11:07;10.93;54.50
66835;HTU21D;53743;51.100;5.874;2024-03-29T00:12:08;10.93;54.62
66835;HTU21D;53743;51.100;5.874;2024-03-29T00:13:10;10.93;54.53
66835;HTU21D;53743;51.100;5.874;2024-03-29T00:14:11;10.94;54.39
66835;HTU21D;53743;51.100;5.874;2024-03-29T00:15:12;10.93;54.44
66835;HTU21D;53743;51.100;5.874;2024-03-29T00:16:14;10.89;54.63
66835;HTU21D;53743;51.100;5.874;2024-03-29T00:17:15;10.86;54.65
66835;HTU21D;53743;51.100;5.874;2024-03-29T00:18:16;10.84;54.84
66835;HTU21D;53743;51.100;5.874;2024-03-29T00:19:17;10.84;54.80
66835;HTU21D;53743;51.100;5.874;2024-03-29T00:20:18;10.81;55.08
66835;HTU21D;53743;51.100;5.874;2024-03-29T00:21:19;10.80;54.97
66835;HTU21D;53743;51.100;5.874;2024-03-29T00:22:20;10.77;54.94
66835;HTU21D;53743;51.100;5.874;2024-03-29T00:23:21;10.81;54.99
66835;HTU21D;53743;51.100;5.874;2024-03-29T00:24:22;10.80;54.93
66835;HTU21D;53743;51.100;5.874;2024-03-29T00:25:24;10.81;55.01
66835;HTU21D;53743;51.100;5.874;2024-03-29T00:26:25;10.80;55.04
66835;HTU21D;53743;51.100;5.874;2024-03-29T00:27:26;10.79;55.14
66835;HTU21D;53743;51.100;5.874;2024-03-29T00:28:28;10.77;55.20
66835;HTU21D;53743;51.100;5.874;2024-03-29T00:29:29;10.77;55.28
66835;HTU21D;53743;51.100;5.874;2024-03-29T00:30:30;10.74;55.29
66835;HTU21D;53743;51.100;5.874;2024-03-29T00:31:31;10.78;55.29
66835;HTU21D;53743;51.100;5.874;2024-03-29T00:32:32;10.74;55.30
66835;HTU21D;53743;51.100;5.874;2024-03-29T00:33:34;10.77;55.20
66835;HTU21D;53743;51.100;5.874;2024-03-29T00:34:35;10.74;55.36
66835;HTU21D;53743;51.100;5.874;2024-03-29T00:35:36;10.78;55.33
66835;HTU21D;53743;51.100;5.874;2024-03-29T00:36:37;10.72;55.45
66835;HTU21D;53743;51.100;5.874;2024-03-29T00:37:38;10.77;55.38
66835;HTU21D;53743;51.100;5.874;2024-03-29T00:38:39;10.80;55.29
66835;HTU21D;53743;51.100;5.874;2024-03-29T00:39:40;10.74;55.55
66835;HTU21D;53743;51.100;5.874;2024-03-29T00:40:41;10.73;55.59
66835;HTU21D;53743;51.100;5.874;2024-03-29T00:41:42;10.75;55.72
66835;HTU21D;53743;51.100;5.874;2024-03-29T00:42:43;10.74;55.73
66835;HTU21D;53743;51.100;5.874;2024-03-29T00:43:46;10.72;55.58
66835;HTU21D;53743;51.100;5.874;2024-03-29T00:44:47;10.74;55.70
66835;HTU21D;53743;51.100;5.874;2024-03-29T00:45:48;10.78;55.65
66835;HTU21D;53743;51.100;5.874;2024-03-29T00:46:49;10.81;55.71
66835;HTU21D;53743;51.100;5.874;2024-03-29T00:47:50;10.78;55.85
66835;HTU21D;53743;51.100;5.874;2024-03-29T00:48:51;10.73;55.91
66835;HTU21D;53743;51.100;5.874;2024-03-29T00:49:52;10.78;56.00
66835;HTU21D;53743;51.100;5.874;2024-03-29T00:50:53;10.78;56.00
66835;HTU21D;53743;51.100;5.874;2024-03-29T00:51:54;10.78;56.03
66835;HTU21D;53743;51.100;5.874;2024-03-29T00:52:55;10.77;56.12
66835;HTU21D;53743;51.100;5.874;2024-03-29T00:53:56;10.79;55.97
66835;HTU21D;53743;51.100;5.874;2024-03-29T00:54:57;10.80;55.94
66835;HTU21D;53743;51.100;5.874;2024-03-29T00:55:58;10.80;56.07
66835;HTU21D;53743;51.100;5.874;2024-03-29T00:57:00;10.78;56.08
66835;HTU21D;53743;51.100;5.874;2024-03-29T00:58:01;10.81;55.89
66835;HTU21D;53743;51.100;5.874;2024-03-29T00:59:03;10.80;56.07
66835;HTU21D;53743;51.100;5.874;2024-03-29T01:00:05;10.80;56.02
66835;HTU21D;53743;51.100;5.874;2024-03-29T01:01:07;10.82;56.03
66835;HTU21D;53743;51.100;5.874;2024-03-29T01:02:08;10.84;56.09
66835;HTU21D;53743;51.100;5.874;2024-03-29T01:03:10;10.80;56.08
66835;HTU21D;53743;51.100;5.874;2024-03-29T01:04:11;10.84;56.07
66835;HTU21D;53743;51.100;5.874;2024-03-29T01:05:13;10.84;56.01
66835;HTU21D;53743;51.100;5.874;2024-03-29T01:06:14;10.83;56.07
66835;HTU21D;53743;51.100;5.874;2024-03-29T01:07:15;10.85;56.00
66835;HTU21D;53743;51.100;5.874;2024-03-29T01:08:17;10.74;56.93
66835;HTU21D;53743;51.100;5.874;2024-03-29T01:09:18;10.77;56.25
66835;HTU21D;53743;51.100;5.874;2024-03-29T01:10:19;10.78;56.26
66835;HTU21D;53743;51.100;5.874;2024-03-29T01:11:20;10.75;56.41
66835;HTU21D;53743;51.100;5.874;2024-03-29T01:12:21;10.75;56.60
66835;HTU21D;53743;51.100;5.874;2024-03-29T01:13:22;10.74;56.61
66835;HTU21D;53743;51.100;5.874;2024-03-29T01:14:24;10.71;56.86
66835;HTU21D;53743;51.100;5.874;2024-03-29T01:15:25;10.71;56.75
66835;HTU21D;53743;51.100;5.874;2024-03-29T01:16:26;10.74;56.80
66835;HTU21D;53743;51.100;5.874;2024-03-29T01:17:28;10.75;56.71
66835;HTU21D;53743;51.100;5.874;2024-03-29T01:18:29;10.77;56.71
66835;HTU21D;53743;51.100;5.874;2024-03-29T01:19:30;10.77;56.87
66835;HTU21D;53743;51.100;5.874;2024-03-29T01:20:32;10.73;56.79
66835;HTU21D;53743;51.100;5.874;2024-03-29T01:21:33;10.74;56.78
66835;HTU21D;53743;51.100;5.874;2024-03-29T01:22:34;10.75;56.72
66835;HTU21D;53743;51.100;5.874;2024-03-29T01:23:35;10.74;56.76
66835;HTU21D;53743;51.100;5.874;2024-03-29T01:24:37;10.77;57.05
66835;HTU21D;53743;51.100;5.874;2024-03-29T01:25:38;10.77;56.92
66835;HTU21D;53743;51.100;5.874;2024-03-29T01:26:39;10.75;57.53
66835;HTU21D;53743;51.100;5.874;2024-03-29T01:27:40;10.74;57.00
66835;HTU21D;53743;51.100;5.874;2024-03-29T01:28:41;10.72;57.24
66835;HTU21D;53743;51.100;5.874;2024-03-29T01:29:43;10.70;57.26
66835;HTU21D;53743;51.100;5.874;2024-03-29T01:30:51;10.65;57.57
66835;HTU21D;53743;51.100;5.874;2024-03-29T01:31:53;10.63;57.71
66835;HTU21D;53743;51.100;5.874;2024-03-29T01:32:54;10.64;57.88
66835;HTU21D;53743;51.100;5.874;2024-03-29T01:33:55;10.63;57.96
66835;HTU21D;53743;51.100;5.874;2024-03-29T01:34:56;10.63;58.16
66835;HTU21D;53743;51.100;5.874;2024-03-29T01:35:57;10.58;58.41
66835;HTU21D;53743;51.100;5.874;2024-03-29T01:36:58;10.52;58.96
66835;HTU21D;53743;51.100;5.874;2024-03-29T01:37:59;10.56;58.41
66835;HTU21D;53743;51.100;5.874;2024-03-29T01:39:00;10.53;58.75
66835;HTU21D;53743;51.100;5.874;2024-03-29T01:40:02;10.52;58.67
66835;HTU21D;53743;51.100;5.874;2024-03-29T01:41:03;10.52;58.70
66835;HTU21D;53743;51.100;5.874;2024-03-29T01:42:05;10.54;58.63
66835;HTU21D;53743;51.100;5.874;2024-03-29T01:43:06;10.59;58.35
66835;HTU21D;53743;51.100;5.874;2024-03-29T01:44:09;10.65;58.11
66835;HTU21D;53743;51.100;5.874;2024-03-29T01:45:11;10.67;58.03
66835;HTU21D;53743;51.100;5.874;2024-03-29T01:46:14;10.70;57.93
66835;HTU21D;53743;51.100;5.874;2024-03-29T01:47:16;10.72;57.91
66835;HTU21D;53743;51.100;5.874;2024-03-29T01:48:21;10.75;57.90
66835;HTU21D;53743;51.100;5.874;2024-03-29T01:49:23;10.79;57.81
66835;HTU21D;53743;51.100;5.874;2024-03-29T01:50:24;10.81;57.56
66835;HTU21D;53743;51.100;5.874;2024-03-29T01:51:26;10.81;57.79
66835;HTU21D;53743;51.100;5.874;2024-03-29T01:52:29;10.84;57.72
66835;HTU21D;53743;51.100;5.874;2024-03-29T01:53:31;10.86;57.61
66835;HTU21D;53743;51.100;5.874;2024-03-29T01:54:33;10.85;57.57
66835;HTU21D;53743;51.100;5.874;2024-03-29T01:55:36;10.82;57.93
66835;HTU21D;53743;51.100;5.874;2024-03-29T01:56:39;10.80;57.87
66835;HTU21D;53743;51.100;5.874;2024-03-29T01:57:42;10.80;58.16
66835;HTU21D;53743;51.100;5.874;2024-03-29T01:58:44;10.81;58.00
66835;HTU21D;53743;51.100;5.874;2024-03-29T01:59:47;10.81;57.98
66835;HTU21D;53743;51.100;5.874;2024-03-29T02:00:52;10.83;57.75
66835;HTU21D;53743;51.100;5.874;2024-03-29T02:01:54;10.81;57.82
66835;HTU21D;53743;51.100;5.874;2024-03-29T02:02:57;10.83;57.85
66835;HTU21D;53743;51.100;5.874;2024-03-29T02:03:58;10.87;57.70
66835;HTU21D;53743;51.100;5.874;2024-03-29T02:04:59;10.88;57.80
66835;HTU21D;53743;51.100;5.874;2024-03-29T02:06:03;10.88;57.75
66835;HTU21D;53743;51.100;5.874;2024-03-29T02:07:06;10.92;57.42
66835;HTU21D;53743;51.100;5.874;2024-03-29T02:08:10;10.95;57.47
66835;HTU21D;53743;51.100;5.874;2024-03-29T02:09:11;10.90;57.48
66835;HTU21D;53743;51.100;5.874;2024-03-29T02:10:12;10.93;57.45
66835;HTU21D;53743;51.100;5.874;2024-03-29T02:11:15;10.97;56.69
66835;HTU21D;53743;51.100;5.874;2024-03-29T02:12:16;11.01;56.53
66835;HTU21D;53743;51.100;5.874;2024-03-29T02:13:18;10.99;56.61
66835;HTU21D;53743;51.100;5.874;2024-03-29T02:14:19;11.05;56.35
66835;HTU21D;53743;51.100;5.874;2024-03-29T02:15:20;11.08;55.71
66835;HTU21D;53743;51.100;5.874;2024-03-29T02:16:24;11.14;56.36
66835;HTU21D;53743;51.100;5.874;2024-03-29T02:17:25;11.22;55.84
66835;HTU21D;53743;51.100;5.874;2024-03-29T02:18:27;11.23;55.75
66835;HTU21D;53743;51.100;5.874;2024-03-29T02:19:27;11.26;55.81
66835;HTU21D;53743;51.100;5.874;2024-03-29T02:20:30;11.30;55.48
66835;HTU21D;53743;51.100;5.874;2024-03-29T02:21:37;11.30;55.29
66835;HTU21D;53743;51.100;5.874;2024-03-29T02:22:50;11.39;55.12
66835;HTU21D;53743;51.100;5.874;2024-03-29T02:24:04;11.37;54.96
66835;HTU21D;53743;51.100;5.874;2024-03-29T02:25:08;11.41;55.14
66835;HTU21D;53743;51.100;5.874;2024-03-29T02:26:10;11.44;55.15
66835;HTU21D;53743;51.100;5.874;2024-03-29T02:27:12;11.51;54.37
66835;HTU21D;53743;51.100;5.874;2024-03-29T02:28:14;11.54;54.35
66835;HTU21D;53743;51.100;5.874;2024-03-29T02:29:18;11.58;54.28
66835;HTU21D;53743;51.100;5.874;2024-03-29T02:30:18;11.58;54.48
66835;HTU21D;53743;51.100;5.874;2024-03-29T02:31:20;11.57;54.51
66835;HTU21D;53743;51.100;5.874;2024-03-29T02:32:22;11.61;54.42
66835;HTU21D;53743;51.100;5.874;2024-03-29T02:33:24;11.63;53.78
66835;HTU21D;53743;51.100;5.874;2024-03-29T02:34:25;11.61;53.87
66835;HTU21D;53743;51.100;5.874;2024-03-29T02:35:28;11.64;54.22
66835;HTU21D;53743;51.100;5.874;2024-03-29T02:36:29;11.67;54.01
66835;HTU21D;53743;51.100;5.874;2024-03-29T02:37:31;11.69;54.27
66835;HTU21D;53743;51.100;5.874;2024-03-29T02:38:32;11.70;54.33
66835;HTU21D;53743;51.100;5.874;2024-03-29T02:39:35;11.71;54.14
66835;HTU21D;53743;51.100;5.874;2024-03-29T02:40:37;11.72;53.91
66835;HTU21D;53743;51.100;5.874;2024-03-29T02:41:38;11.73;53.64
66835;HTU21D;53743;51.100;5.874;2024-03-29T02:42:40;11.71;53.08
66835;HTU21D;53743;51.100;5.874;2024-03-29T02:43:41;11.71;53.75
66835;HTU21D;53743;51.100;5.874;2024-03-29T02:44:43;11.77;53.78
66835;HTU21D;53743;51.100;5.874;2024-03-29T02:45:44;11.74;54.44
66835;HTU21D;53743;51.100;5.874;2024-03-29T02:46:46;11.76;54.20
66835;HTU21D;53743;51.100;5.874;2024-03-29T02:47:47;11.75;54.23
66835;HTU21D;53743;51.100;5.874;2024-03-29T02:48:48;11.77;54.35
66835;HTU21D;53743;51.100;5.874;2024-03-29T02:49:50;11.81;55.08
66835;HTU21D;53743;51.100;5.874;2024-03-29T02:50:51;11.76;55.86
66835;HTU21D;53743;51.100;5.874;2024-03-29T02:51:52;11.76;55.69
66835;HTU21D;53743;51.100;5.874;2024-03-29T02:52:53;11.77;56.11
66835;HTU21D;53743;51.100;5.874;2024-03-29T02:53:55;11.74;56.42
66835;HTU21D;53743;51.100;5.874;2024-03-29T02:54:57;11.73;56.45
66835;HTU21D;53743;51.100;5.874;2024-03-29T02:55:58;11.70;58.41
66835;HTU21D;53743;51.100;5.874;2024-03-29T02:56:59;11.62;59.16
66835;HTU21D;53743;51.100;5.874;2024-03-29T02:58:01;11.60;57.95
66835;HTU21D;53743;51.100;5.874;2024-03-29T02:59:02;11.62;58.50
66835;HTU21D;53743;51.100;5.874;2024-03-29T03:00:04;11.62;59.91
66835;HTU21D;53743;51.100;5.874;2024-03-29T03:01:07;11.60;58.77
66835;HTU21D;53743;51.100;5.874;2024-03-29T03:02:09;11.58;59.22
66835;HTU21D;53743;51.100;5.874;2024-03-29T03:03:10;11.54;60.35
66835;HTU21D;53743;51.100;5.874;2024-03-29T03:04:11;11.48;60.80
66835;HTU21D;53743;51.100;5.874;2024-03-29T03:05:12;11.45;62.95
66835;HTU21D;53743;51.100;5.874;2024-03-29T03:06:14;11.40;61.54
66835;HTU21D;53743;51.100;5.874;2024-03-29T03:07:14;11.33;64.28
66835;HTU21D;53743;51.100;5.874;2024-03-29T03:08:34;11.31;64.08
66835;HTU21D;53743;51.100;5.874;2024-03-29T03:09:54;11.27;62.39
66835;HTU21D;53743;51.100;5.874;2024-03-29T03:11:15;11.26;62.54
66835;HTU21D;53743;51.100;5.874;2024-03-29T03:12:17;11.23;64.82
66835;HTU21D;53743;51.100;5.874;2024-03-29T03:13:18;11.19;63.97
66835;HTU21D;53743;51.100;5.874;2024-03-29T03:14:20;11.17;63.67
66835;HTU21D;53743;51.100;5.874;2024-03-29T03:15:22;11.14;65.29
66835;HTU21D;53743;51.100;5.874;2024-03-29T03:16:24;11.10;64.44
66835;HTU21D;53743;51.100;5.874;2024-03-29T03:17:26;11.11;64.35
66835;HTU21D;53743;51.100;5.874;2024-03-29T03:18:27;11.07;65.55
66835;HTU21D;53743;51.100;5.874;2024-03-29T03:19:29;11.05;64.68
66835;HTU21D;53743;51.100;5.874;2024-03-29T03:20:30;11.05;64.76
66835;HTU21D;53743;51.100;5.874;2024-03-29T03:21:32;11.05;65.38
66835;HTU21D;53743;51.100;5.874;2024-03-29T03:22:33;11.05;65.20
66835;HTU21D;53743;51.100;5.874;2024-03-29T03:23:34;11.03;65.92
66835;HTU21D;53743;51.100;5.874;2024-03-29T03:24:36;11.00;67.79
66835;HTU21D;53743;51.100;5.874;2024-03-29T03:25:37;11.00;65.78
66835;HTU21D;53743;51.100;5.874;2024-03-29T03:26:39;10.97;66.71
66835;HTU21D;53743;51.100;5.874;2024-03-29T03:27:40;10.98;65.93
66835;HTU21D;53743;51.100;5.874;2024-03-29T03:28:45;10.97;65.91
66835;HTU21D;53743;51.100;5.874;2024-03-29T03:29:46;10.96;68.00
66835;HTU21D;53743;51.100;5.874;2024-03-29T03:30:48;10.97;68.41
66835;HTU21D;53743;51.100;5.874;2024-03-29T03:31:51;10.97;66.33
66835;HTU21D;53743;51.100;5.874;2024-03-29T03:32:52;10.97;66.72
66835;HTU21D;53743;51.100;5.874;2024-03-29T03:33:53;10.97;66.78
66835;HTU21D;53743;51.100;5.874;2024-03-29T03:34:55;10.99;66.65
66835;HTU21D;53743;51.100;5.874;2024-03-29T03:35:59;10.98;66.99
66835;HTU21D;53743;51.100;5.874;2024-03-29T03:37:00;10.97;67.17
66835;HTU21D;53743;51.100;5.874;2024-03-29T03:38:01;10.93;67.91
66835;HTU21D;53743;51.100;5.874;2024-03-29T03:39:03;10.94;67.90
66835;HTU21D;53743;51.100;5.874;2024-03-29T03:40:05;10.90;67.62
66835;HTU21D;53743;51.100;5.874;2024-03-29T03:41:07;10.90;67.60
66835;HTU21D;53743;51.100;5.874;2024-03-29T03:42:09;10.90;67.96
66835;HTU21D;53743;51.100;5.874;2024-03-29T03:43:11;10.92;68.84
66835;HTU21D;53743;51.100;5.874;2024-03-29T03:44:12;10.90;68.40
66835;HTU21D;53743;51.100;5.874;2024-03-29T03:45:13;10.92;68.55
66835;HTU21D;53743;51.100;5.874;2024-03-29T03:46:17;10.92;68.76
66835;HTU21D;53743;51.100;5.874;2024-03-29T03:47:18;10.90;69.11
66835;HTU21D;53743;51.100;5.874;2024-03-29T03:48:19;10.90;69.19
66835;HTU21D;53743;51.100;5.874;2024-03-29T03:49:21;10.94;69.30
66835;HTU21D;53743;51.100;5.874;2024-03-29T03:50:22;10.94;69.36
66835;HTU21D;53743;51.100;5.874;2024-03-29T03:51:23;10.94;69.61
66835;HTU21D;53743;51.100;5.874;2024-03-29T03:52:25;10.94;69.93
66835;HTU21D;53743;51.100;5.874;2024-03-29T03:53:26;10.95;70.03
66835;HTU21D;53743;51.100;5.874;2024-03-29T03:54:26;10.96;70.09
66835;HTU21D;53743;51.100;5.874;2024-03-29T03:55:27;10.95;70.12
66835;HTU21D;53743;51.100;5.874;2024-03-29T03:56:30;10.93;70.23
66835;HTU21D;53743;51.100;5.874;2024-03-29T03:57:32;10.93;70.38
66835;HTU21D;53743;51.100;5.874;2024-03-29T03:58:34;10.90;70.36
66835;HTU21D;53743;51.100;5.874;2024-03-29T03:59:35;10.92;71.08
66835;HTU21D;53743;51.100;5.874;2024-03-29T04:00:37;10.89;70.64
66835;HTU21D;53743;51.100;5.874;2024-03-29T04:01:38;10.87;70.69
66835;HTU21D;53743;51.100;5.874;2024-03-29T04:02:39;10.86;71.17
66835;HTU21D;53743;51.100;5.874;2024-03-29T04:03:41;10.84;70.72
66835;HTU21D;53743;51.100;5.874;2024-03-29T04:04:42;10.82;71.03
66835;HTU21D;53743;51.100;5.874;2024-03-29T04:05:47;10.81;71.06
66835;HTU21D;53743;51.100;5.874;2024-03-29T04:06:48;10.81;70.98
66835;HTU21D;53743;51.100;5.874;2024-03-29T04:07:50;10.80;71.37
66835;HTU21D;53743;51.100;5.874;2024-03-29T04:08:51;10.80;71.13
66835;HTU21D;53743;51.100;5.874;2024-03-29T04:09:52;10.79;71.30
66835;HTU21D;53743;51.100;5.874;2024-03-29T04:10:54;10.81;71.66
66835;HTU21D;53743;51.100;5.874;2024-03-29T04:11:55;10.81;72.01
66835;HTU21D;53743;51.100;5.874;2024-03-29T04:12:58;10.81;71.74
66835;HTU21D;53743;51.100;5.874;2024-03-29T04:13:59;10.80;72.03
66835;HTU21D;53743;51.100;5.874;2024-03-29T04:15:01;10.78;71.71
66835;HTU21D;53743;51.100;5.874;2024-03-29T04:16:04;10.73;72.07
66835;HTU21D;53743;51.100;5.874;2024-03-29T04:17:06;10.69;72.53
66835;HTU21D;53743;51.100;5.874;2024-03-29T04:18:07;10.67;73.86
66835;HTU21D;53743;51.100;5.874;2024-03-29T04:19:09;10.62;73.25
66835;HTU21D;53743;51.100;5.874;2024-03-29T04:20:11;10.59;73.11
66835;HTU21D;53743;51.100;5.874;2024-03-29T04:21:12;10.59;73.17
66835;HTU21D;53743;51.100;5.874;2024-03-29T04:22:12;10.58;73.32
66835;HTU21D;53743;51.100;5.874;2024-03-29T04:23:14;10.57;73.78
66835;HTU21D;53743;51.100;5.874;2024-03-29T04:24:15;10.57;73.94
66835;HTU21D;53743;51.100;5.874;2024-03-29T04:25:16;10.53;74.22
66835;HTU21D;53743;51.100;5.874;2024-03-29T04:26:17;10.51;74.67
66835;HTU21D;53743;51.100;5.874;2024-03-29T04:27:20;10.52;74.37
66835;HTU21D;53743;51.100;5.874;2024-03-29T04:28:23;10.53;74.51
66835;HTU21D;53743;51.100;5.874;2024-03-29T04:29:25;10.53;74.52
66835;HTU21D;53743;51.100;5.874;2024-03-29T04:30:26;10.49;75.31
66835;HTU21D;53743;51.100;5.874;2024-03-29T04:31:28;10.50;74.83
66835;HTU21D;53743;51.100;5.874;2024-03-29T04:32:28;10.51;74.83
66835;HTU21D;53743;51.100;5.874;2024-03-29T04:33:29;10.52;74.99
66835;HTU21D;53743;51.100;5.874;2024-03-29T04:34:31;10.56;75.10
66835;HTU21D;53743;51.100;5.874;2024-03-29T04:35:34;10.58;75.14
66835;HTU21D;53743;51.100;5.874;2024-03-29T04:36:35;10.60;75.13
66835;HTU21D;53743;51.100;5.874;2024-03-29T04:37:36;10.62;75.34
66835;HTU21D;53743;51.100;5.874;2024-03-29T04:38:37;10.63;75.03
66835;HTU21D;53743;51.100;5.874;2024-03-29T04:39:39;10.64;75.01
66835;HTU21D;53743;51.100;5.874;2024-03-29T04:40:40;10.65;75.15
66835;HTU21D;53743;51.100;5.874;2024-03-29T04:41:41;10.66;75.12
66835;HTU21D;53743;51.100;5.874;2024-03-29T04:42:42;10.67;75.21
66835;HTU21D;53743;51.100;5.874;2024-03-29T04:43:46;10.71;75.05
66835;HTU21D;53743;51.100;5.874;2024-03-29T04:44:47;10.72;74.79
66835;HTU21D;53743;51.100;5.874;2024-03-29T04:45:48;10.73;74.64
66835;HTU21D;53743;51.100;5.874;2024-03-29T04:46:50;10.75;74.68
66835;HTU21D;53743;51.100;5.874;2024-03-29T04:47:52;10.78;74.45
66835;HTU21D;53743;51.100;5.874;2024-03-29T04:48:53;10.78;74.25
66835;HTU21D;53743;51.100;5.874;2024-03-29T04:49:54;10.79;74.16
66835;HTU21D;53743;51.100;5.874;2024-03-29T04:50:56;10.80;73.98
66835;HTU21D;53743;51.100;5.874;2024-03-29T04:51:57;10.79;74.16
66835;HTU21D;53743;51.100;5.874;2024-03-29T04:53:00;10.77;74.35
66835;HTU21D;53743;51.100;5.874;2024-03-29T04:54:01;10.71;74.60
66835;HTU21D;53743;51.100;5.874;2024-03-29T04:55:03;10.69;74.87
66835;HTU21D;53743;51.100;5.874;2024-03-29T04:56:05;10.66;74.91
66835;HTU21D;53743;51.100;5.874;2024-03-29T04:57:08;10.64;75.24
66835;HTU21D;53743;51.100;5.874;2024-03-29T04:58:09;10.63;75.33
66835;HTU21D;53743;51.100;5.874;2024-03-29T04:59:12;10.59;75.50
66835;HTU21D;53743;51.100;5.874;2024-03-29T05:00:17;10.55;75.70
66835;HTU21D;53743;51.100;5.874;2024-03-29T05:01:19;10.54;75.62
66835;HTU21D;53743;51.100;5.874;2024-03-29T05:02:20;10.51;75.84
66835;HTU21D;53743;51.100;5.874;2024-03-29T05:03:23;10.49;76.08
66835;HTU21D;53743;51.100;5.874;2024-03-29T05:04:25;10.48;76.15
66835;HTU21D;53743;51.100;5.874;2024-03-29T05:05:26;10.46;75.99
66835;HTU21D;53743;51.100;5.874;2024-03-29T05:06:29;10.46;75.78
66835;HTU21D;53743;51.100;5.874;2024-03-29T05:07:30;10.48;75.57
66835;HTU21D;53743;51.100;5.874;2024-03-29T05:08:31;10.49;75.63
66835;HTU21D;53743;51.100;5.874;2024-03-29T05:09:33;10.44;75.64
66835;HTU21D;53743;51.100;5.874;2024-03-29T05:10:35;10.43;75.42
66835;HTU21D;53743;51.100;5.874;2024-03-29T05:11:38;10.44;75.44
66835;HTU21D;53743;51.100;5.874;2024-03-29T05:12:38;10.48;75.10
66835;HTU21D;53743;51.100;5.874;2024-03-29T05:13:41;10.43;75.43
66835;HTU21D;53743;51.100;5.874;2024-03-29T05:14:43;10.37;75.70
66835;HTU21D;53743;51.100;5.874;2024-03-29T05:15:45;10.30;76.53
66835;HTU21D;53743;51.100;5.874;2024-03-29T05:16:48;10.27;76.51
66835;HTU21D;53743;51.100;5.874;2024-03-29T05:17:50;10.26;76.80
66835;HTU21D;53743;51.100;5.874;2024-03-29T05:18:51;10.27;77.03
66835;HTU21D;53743;51.100;5.874;2024-03-29T05:19:53;10.30;77.21
66835;HTU21D;53743;51.100;5.874;2024-03-29T05:20:54;10.35;77.21
66835;HTU21D;53743;51.100;5.874;2024-03-29T05:21:56;10.33;77.18
66835;HTU21D;53743;51.100;5.874;2024-03-29T05:22:58;10.33;77.02
66835;HTU21D;53743;51.100;5.874;2024-03-29T05:24:00;10.31;77.03
66835;HTU21D;53743;51.100;5.874;2024-03-29T05:25:01;10.34;77.05
66835;HTU21D;53743;51.100;5.874;2024-03-29T05:26:04;10.35;77.03
66835;HTU21D;53743;51.100;5.874;2024-03-29T05:27:05;10.37;76.72
66835;HTU21D;53743;51.100;5.874;2024-03-29T05:28:07;10.39;76.51
66835;HTU21D;53743;51.100;5.874;2024-03-29T05:29:08;10.39;76.27
66835;HTU21D;53743;51.100;5.874;2024-03-29T05:30:11;10.42;76.05
66835;HTU21D;53743;51.100;5.874;2024-03-29T05:31:14;10.42;75.90
66835;HTU21D;53743;51.100;5.874;2024-03-29T05:32:16;10.39;75.89
66835;HTU21D;53743;51.100;5.874;2024-03-29T05:33:18;10.40;75.99
66835;HTU21D;53743;51.100;5.874;2024-03-29T05:34:19;10.40;0.00
66835;HTU21D;53743;51.100;5.874;2024-03-29T05:35:21;10.38;76.11
66835;HTU21D;53743;51.100;5.874;2024-03-29T05:36:22;10.39;75.97
66835;HTU21D;53743;51.100;5.874;2024-03-29T05:37:24;10.36;76.22
66835;HTU21D;53743;51.100;5.874;2024-03-29T05:38:25;10.37;76.22
66835;HTU21D;53743;51.100;5.874;2024-03-29T05:39:27;10.37;76.39
66835;HTU21D;53743;51.100;5.874;2024-03-29T05:40:28;10.36;76.25
66835;HTU21D;53743;51.100;5.874;2024-03-29T05:41:31;10.31;76.53
66835;HTU21D;53743;51.100;5.874;2024-03-29T05:42:33;10.30;76.41
66835;HTU21D;53743;51.100;5.874;2024-03-29T05:43:38;10.30;76.40
66835;HTU21D;53743;51.100;5.874;2024-03-29T05:44:39;10.31;76.35
66835;HTU21D;53743;51.100;5.874;2024-03-29T05:45:42;10.33;76.53
66835;HTU21D;53743;51.100;5.874;2024-03-29T05:46:43;10.33;76.78
66835;HTU21D;53743;51.100;5.874;2024-03-29T05:47:45;10.30;76.97
66835;HTU21D;53743;51.100;5.874;2024-03-29T05:48:46;10.29;77.27
66835;HTU21D;53743;51.100;5.874;2024-03-29T05:49:49;10.31;77.47
66835;HTU21D;53743;51.100;5.874;2024-03-29T05:50:50;10.31;77.72
66835;HTU21D;53743;51.100;5.874;2024-03-29T05:51:51;10.31;77.95
66835;HTU21D;53743;51.100;5.874;2024-03-29T05:52:53;10.35;78.11
66835;HTU21D;53743;51.100;5.874;2024-03-29T05:53:55;10.36;78.34
66835;HTU21D;53743;51.100;5.874;2024-03-29T05:54:57;10.37;78.40
66835;HTU21D;53743;51.100;5.874;2024-03-29T05:55:58;10.39;78.60
66835;HTU21D;53743;51.100;5.874;2024-03-29T05:57:00;10.41;78.56
66835;HTU21D;53743;51.100;5.874;2024-03-29T05:58:01;10.43;78.34
66835;HTU21D;53743;51.100;5.874;2024-03-29T05:59:03;10.42;78.43
66835;HTU21D;53743;51.100;5.874;2024-03-29T06:00:05;10.44;78.50
66835;HTU21D;53743;51.100;5.874;2024-03-29T06:01:08;10.46;78.68
66835;HTU21D;53743;51.100;5.874;2024-03-29T06:02:10;10.50;78.43
66835;HTU21D;53743;51.100;5.874;2024-03-29T06:03:11;10.51;78.43
66835;HTU21D;53743;51.100;5.874;2024-03-29T06:04:12;10.53;78.45
66835;HTU21D;53743;51.100;5.874;2024-03-29T06:05:16;10.56;78.50
66835;HTU21D;53743;51.100;5.874;2024-03-29T06:06:17;10.58;78.47
66835;HTU21D;53743;51.100;5.874;2024-03-29T06:07:24;10.60;78.30
66835;HTU21D;53743;51.100;5.874;2024-03-29T06:08:25;10.63;78.31
66835;HTU21D;53743;51.100;5.874;2024-03-29T06:09:27;10.67;78.15
66835;HTU21D;53743;51.100;5.874;2024-03-29T06:10:29;10.72;77.74
66835;HTU21D;53743;51.100;5.874;2024-03-29T06:11:31;10.70;77.60
66835;HTU21D;53743;51.100;5.874;2024-03-29T06:12:32;10.69;77.53
66835;HTU21D;53743;51.100;5.874;2024-03-29T06:13:35;10.70;77.18
66835;HTU21D;53743;51.100;5.874;2024-03-29T06:15:06;10.72;76.82
66835;HTU21D;53743;51.100;5.874;2024-03-29T06:16:28;10.70;76.57
66835;HTU21D;53743;51.100;5.874;2024-03-29T06:17:48;10.63;76.98
66835;HTU21D;53743;51.100;5.874;2024-03-29T06:18:49;10.62;77.05
66835;HTU21D;53743;51.100;5.874;2024-03-29T06:19:51;10.63;77.21
66835;HTU21D;53743;51.100;5.874;2024-03-29T06:20:56;10.63;77.38
66835;HTU21D;53743;51.100;5.874;2024-03-29T06:21:57;10.66;77.50
66835;HTU21D;53743;51.100;5.874;2024-03-29T06:22:59;10.65;77.58
66835;HTU21D;53743;51.100;5.874;2024-03-29T06:24:00;10.67;77.67
66835;HTU21D;53743;51.100;5.874;2024-03-29T06:25:03;10.69;77.90
66835;HTU21D;53743;51.100;5.874;2024-03-29T06:26:05;10.71;77.86